createdAt,value
2023-01-04T00:00:49.974Z,0.00
2023-01-04T00:01:49.913Z,0.00
2023-01-04T00:02:49.974Z,0.00
2023-01-04T00:03:49.964Z,0.00
2023-01-04T00:04:49.922Z,0.00
2023-01-04T00:05:49.852Z,0.00
2023-01-04T00:06:49.841Z,0.00
2023-01-04T00:07:49.822Z,0.00
2023-01-04T00:08:49.812Z,0.00
2023-01-04T00:09:49.790Z,0.00
2023-01-04T00:10:49.779Z,0.00
2023-01-04T00:11:49.776Z,0.00
2023-01-04T00:12:49.930Z,0.00
2023-01-04T00:13:49.729Z,0.00
2023-01-04T00:14:49.790Z,0.00
2023-01-04T00:15:49.791Z,0.00
2023-01-04T00:16:49.853Z,0.00
2023-01-04T00:17:49.703Z,0.00
2023-01-04T00:18:49.711Z,0.00
2023-01-04T00:19:49.829Z,0.00
2023-01-04T00:20:49.695Z,0.00
2023-01-04T00:21:49.641Z,0.00
2023-01-04T00:22:49.630Z,0.00
2023-01-04T00:23:49.615Z,0.00
2023-01-04T00:24:49.609Z,0.00
2023-01-04T00:25:49.590Z,0.00
2023-01-04T00:26:49.590Z,0.00
2023-01-04T00:27:49.555Z,0.00
2023-01-04T00:28:54.243Z,0.00
2023-01-04T00:29:50.533Z,0.00
2023-01-04T00:30:49.576Z,0.00
2023-01-04T00:31:49.705Z,0.00
2023-01-04T00:32:49.503Z,0.00
2023-01-04T00:33:49.480Z,0.00
2023-01-04T00:34:49.692Z,0.00
2023-01-04T00:35:49.446Z,0.00
2023-01-04T00:36:49.449Z,0.00
2023-01-04T00:37:52.015Z,0.00
2023-01-04T00:38:49.449Z,0.00
2023-01-04T00:39:49.397Z,0.00
2023-01-04T00:40:49.378Z,0.00
2023-01-04T00:41:58.794Z,0.00
2023-01-04T00:42:50.468Z,0.00
2023-01-04T00:43:49.345Z,0.00
2023-01-04T00:44:49.411Z,0.00
2023-01-04T00:45:49.350Z,0.00
2023-01-04T00:46:49.368Z,0.00
2023-01-04T00:47:49.464Z,0.00
2023-01-04T00:48:49.290Z,0.00
2023-01-04T00:49:49.264Z,0.00
2023-01-04T00:50:49.252Z,0.00
2023-01-04T00:51:49.426Z,0.00
2023-01-04T00:52:49.221Z,0.00
2023-01-04T00:53:49.219Z,0.00
2023-01-04T00:54:49.201Z,0.00
2023-01-04T00:55:49.194Z,0.00
2023-01-04T00:56:49.212Z,0.00
2023-01-04T00:57:49.189Z,0.00
2023-01-04T00:58:49.146Z,0.00
2023-01-04T00:59:49.140Z,0.00
2023-01-04T01:00:49.125Z,0.00
2023-01-04T01:01:49.226Z,0.00
2023-01-04T01:02:49.267Z,0.00
2023-01-04T01:03:49.201Z,0.00
2023-01-04T01:04:49.231Z,0.00
2023-01-04T01:05:49.080Z,0.00
2023-01-04T01:06:49.035Z,0.00
2023-01-04T01:07:49.060Z,0.00
2023-01-04T01:08:49.024Z,0.00
2023-01-04T01:09:49.028Z,0.00
2023-01-04T01:10:48.989Z,0.00
2023-01-04T01:11:48.979Z,0.00
2023-01-04T01:12:48.957Z,0.00
2023-01-04T01:13:49.117Z,0.00
2023-01-04T01:14:48.930Z,0.00
2023-01-04T01:15:49.030Z,0.00
2023-01-04T01:16:58.115Z,0.00
2023-01-04T01:17:49.896Z,0.00
2023-01-04T01:18:49.047Z,0.00
2023-01-04T01:19:48.868Z,0.00
2023-01-04T01:20:48.852Z,0.00
2023-01-04T01:21:49.058Z,0.00
2023-01-04T01:22:48.997Z,0.00
2023-01-04T01:23:48.821Z,0.00
2023-01-04T01:24:48.794Z,0.00
2023-01-04T01:25:48.804Z,0.00
2023-01-04T01:26:48.774Z,0.00
2023-01-04T01:27:48.935Z,0.00
2023-01-04T01:28:48.756Z,0.00
2023-01-04T01:29:48.736Z,0.00
2023-01-04T01:30:48.748Z,0.00
2023-01-04T01:31:48.785Z,0.00
2023-01-04T01:32:48.864Z,0.00
2023-01-04T01:33:48.684Z,0.00
2023-01-04T01:34:48.718Z,0.00
2023-01-04T01:35:48.687Z,0.00
2023-01-04T01:36:48.642Z,0.00
2023-01-04T01:37:48.802Z,0.00
2023-01-04T01:38:48.627Z,0.00
2023-01-04T01:39:48.613Z,0.00
2023-01-04T01:40:48.584Z,0.00
2023-01-04T01:41:48.602Z,0.00
2023-01-04T01:42:48.735Z,0.00
2023-01-04T01:43:48.563Z,0.00
2023-01-04T01:44:48.715Z,0.00
2023-01-04T01:45:48.530Z,0.00
2023-01-04T01:46:48.563Z,0.00
2023-01-04T01:47:48.702Z,0.00
2023-01-04T01:48:48.493Z,0.00
2023-01-04T01:49:48.655Z,0.00
2023-01-04T01:50:48.462Z,0.00
2023-01-04T01:51:48.458Z,0.00
2023-01-04T01:52:48.437Z,0.00
2023-01-04T01:53:48.421Z,0.00
2023-01-04T01:54:48.581Z,0.00
2023-01-04T01:55:48.400Z,0.00
2023-01-04T01:56:48.372Z,0.00
2023-01-04T01:57:48.379Z,0.00
2023-01-04T01:58:48.349Z,0.00
2023-01-04T01:59:48.539Z,0.00
2023-01-04T02:00:48.358Z,0.00
2023-01-04T02:01:48.459Z,0.00
2023-01-04T02:02:48.410Z,0.00
2023-01-04T02:03:48.351Z,0.00
2023-01-04T02:04:48.277Z,0.00
2023-01-04T02:05:48.299Z,0.00
2023-01-04T02:06:48.419Z,0.00
2023-01-04T02:07:48.269Z,0.00
2023-01-04T02:08:48.227Z,0.00
2023-01-04T02:09:48.217Z,0.00
2023-01-04T02:10:48.189Z,0.00
2023-01-04T02:11:48.377Z,0.00
2023-01-04T02:12:48.167Z,0.00
2023-01-04T02:13:48.159Z,0.00
2023-01-04T02:14:48.138Z,0.00
2023-01-04T02:15:48.160Z,0.00
2023-01-04T02:16:48.312Z,0.00
2023-01-04T02:17:48.105Z,0.00
2023-01-04T02:18:48.267Z,0.00
2023-01-04T02:19:48.083Z,0.00
2023-01-04T02:20:48.067Z,0.00
2023-01-04T02:21:48.055Z,0.00
2023-01-04T02:22:48.064Z,0.00
2023-01-04T02:23:48.212Z,0.00
2023-01-04T02:24:48.295Z,0.00
2023-01-04T02:25:48.004Z,0.00
2023-01-04T02:26:47.997Z,0.00
2023-01-04T02:27:47.972Z,0.00
2023-01-04T02:28:47.985Z,0.00
2023-01-04T02:29:48.163Z,0.00
2023-01-04T02:30:48.198Z,0.00
2023-01-04T02:31:48.012Z,0.00
2023-01-04T02:32:47.906Z,0.00
2023-01-04T02:33:47.929Z,0.00
2023-01-04T02:34:49.340Z,0.00
2023-01-04T02:35:48.035Z,0.00
2023-01-04T02:36:47.882Z,0.00
2023-01-04T02:37:47.866Z,0.00
2023-01-04T02:38:47.832Z,0.00
2023-01-04T02:39:48.102Z,0.00
2023-01-04T02:40:47.819Z,0.00
2023-01-04T02:41:47.809Z,0.00
2023-01-04T02:42:47.975Z,0.00
2023-01-04T02:43:47.775Z,0.00
2023-01-04T02:44:47.769Z,0.00
2023-01-04T02:45:47.741Z,0.00
2023-01-04T02:46:47.785Z,0.00
2023-01-04T02:47:47.716Z,0.00
2023-01-04T02:48:47.889Z,0.00
2023-01-04T02:49:47.693Z,0.00
2023-01-04T02:50:47.671Z,0.00
2023-01-04T02:51:47.811Z,0.00
2023-01-04T02:52:47.640Z,0.00
2023-01-04T02:53:47.642Z,0.00
2023-01-04T02:54:47.828Z,0.00
2023-01-04T02:55:47.835Z,0.00
2023-01-04T02:56:47.589Z,0.00
2023-01-04T02:57:47.578Z,0.00
2023-01-04T02:58:47.567Z,0.00
2023-01-04T02:59:47.567Z,0.00
2023-01-04T03:00:47.682Z,0.00
2023-01-04T03:01:47.596Z,0.00
2023-01-04T03:02:47.751Z,0.00
2023-01-04T03:03:47.577Z,0.00
2023-01-04T03:04:47.646Z,0.00
2023-01-04T03:05:47.482Z,0.00
2023-01-04T03:06:47.465Z,0.00
2023-01-04T03:07:47.648Z,0.00
2023-01-04T03:08:47.478Z,0.00
2023-01-04T03:09:47.427Z,0.00
2023-01-04T03:10:47.616Z,0.00
2023-01-04T03:11:47.557Z,0.00
2023-01-04T03:12:47.381Z,0.00
2023-01-04T03:13:47.376Z,0.00
2023-01-04T03:14:47.366Z,0.00
2023-01-04T03:15:47.388Z,0.00
2023-01-04T03:16:47.496Z,0.00
2023-01-04T03:17:47.484Z,0.00
2023-01-04T03:18:47.306Z,0.00
2023-01-04T03:19:47.283Z,0.00
2023-01-04T03:20:47.280Z,0.00
2023-01-04T03:21:47.254Z,0.00
2023-01-04T03:22:47.254Z,0.00
2023-01-04T03:23:47.402Z,0.00
2023-01-04T03:24:47.227Z,0.00
2023-01-04T03:25:47.203Z,0.00
2023-01-04T03:26:47.197Z,0.00
2023-01-04T03:27:47.183Z,0.00
2023-01-04T03:28:47.373Z,0.00
2023-01-04T03:29:47.152Z,0.00
2023-01-04T03:30:47.148Z,0.00
2023-01-04T03:31:47.168Z,0.00
2023-01-04T03:32:47.121Z,0.00
2023-01-04T03:33:47.286Z,0.00
2023-01-04T03:34:47.091Z,0.00
2023-01-04T03:35:47.085Z,0.00
2023-01-04T03:36:47.076Z,0.00
2023-01-04T03:37:47.063Z,0.00
2023-01-04T03:38:47.050Z,0.00
2023-01-04T03:39:47.205Z,0.00
2023-01-04T03:40:47.020Z,0.00
2023-01-04T03:41:47.010Z,0.00
2023-01-04T03:42:46.988Z,0.00
2023-01-04T03:43:46.972Z,0.00
2023-01-04T03:44:47.128Z,0.00
2023-01-04T03:45:46.949Z,0.00
2023-01-04T03:46:46.970Z,0.00
2023-01-04T03:47:46.931Z,0.00
2023-01-04T03:48:46.902Z,0.00
2023-01-04T03:49:47.071Z,0.00
2023-01-04T03:50:47.049Z,0.00
2023-01-04T03:51:46.867Z,0.00
2023-01-04T03:52:46.857Z,0.00
2023-01-04T03:53:46.848Z,0.00
2023-01-04T03:54:46.829Z,0.00
2023-01-04T03:55:47.001Z,0.00
2023-01-04T03:56:46.806Z,0.00
2023-01-04T03:57:46.807Z,0.00
2023-01-04T03:58:46.787Z,0.00
2023-01-04T03:59:46.777Z,0.00
2023-01-04T04:00:46.789Z,0.00
2023-01-04T04:01:46.862Z,0.00
2023-01-04T04:02:46.726Z,0.00
2023-01-04T04:03:46.730Z,0.00
2023-01-04T04:04:46.694Z,0.00
2023-01-04T04:05:46.859Z,0.00
2023-01-04T04:06:46.674Z,0.00
2023-01-04T04:07:46.707Z,0.00
2023-01-04T04:08:46.647Z,0.00
2023-01-04T04:09:46.636Z,0.00
2023-01-04T04:10:46.795Z,0.00
2023-01-04T04:11:46.840Z,0.00
2023-01-04T04:12:46.592Z,0.00
2023-01-04T04:13:46.583Z,0.00
2023-01-04T04:14:46.569Z,0.00
2023-01-04T04:15:46.557Z,0.00
2023-01-04T04:16:46.793Z,0.00
2023-01-04T04:17:46.535Z,0.00
2023-01-04T04:18:46.514Z,0.00
2023-01-04T04:19:46.505Z,0.00
2023-01-04T04:20:46.672Z,0.00
2023-01-04T04:21:46.476Z,0.00
2023-01-04T04:22:46.453Z,0.00
2023-01-04T04:23:46.466Z,0.00
2023-01-04T04:24:46.441Z,0.00
2023-01-04T04:25:46.437Z,0.00
2023-01-04T04:26:46.595Z,0.00
2023-01-04T04:27:46.411Z,0.00
2023-01-04T04:28:46.380Z,0.00
2023-01-04T04:29:46.376Z,0.00
2023-01-04T04:30:46.351Z,0.00
2023-01-04T04:31:46.633Z,0.00
2023-01-04T04:32:46.328Z,0.00
2023-01-04T04:33:46.335Z,0.00
2023-01-04T04:34:46.344Z,0.00
2023-01-04T04:35:46.479Z,0.00
2023-01-04T04:36:46.280Z,0.00
2023-01-04T04:37:46.270Z,0.00
2023-01-04T04:38:46.260Z,0.00
2023-01-04T04:39:46.237Z,0.00
2023-01-04T04:40:46.405Z,0.00
2023-01-04T04:41:46.213Z,0.00
2023-01-04T04:42:46.201Z,0.00
2023-01-04T04:43:46.192Z,0.00
2023-01-04T04:44:46.172Z,0.00
2023-01-04T04:45:46.374Z,0.00
2023-01-04T04:46:46.313Z,0.00
2023-01-04T04:47:46.145Z,0.00
2023-01-04T04:48:46.116Z,0.00
2023-01-04T04:49:46.112Z,0.00
2023-01-04T04:50:46.100Z,0.00
2023-01-04T04:51:46.266Z,0.00
2023-01-04T04:52:49.806Z,0.00
2023-01-04T04:53:47.060Z,0.00
2023-01-04T04:54:46.034Z,0.00
2023-01-04T04:55:46.041Z,0.00
2023-01-04T04:56:46.186Z,0.00
2023-01-04T04:57:46.010Z,0.00
2023-01-04T04:58:46.245Z,0.00
2023-01-04T04:59:45.975Z,0.00
2023-01-04T05:00:46.003Z,0.00
2023-01-04T05:01:46.085Z,0.00
2023-01-04T05:02:46.022Z,0.00
2023-01-04T05:03:45.984Z,0.00
2023-01-04T05:04:46.094Z,0.00
2023-01-04T05:05:45.892Z,0.00
2023-01-04T05:06:46.079Z,0.00
2023-01-04T05:07:45.872Z,0.00
2023-01-04T05:08:45.862Z,0.00
2023-01-04T05:09:45.878Z,0.00
2023-01-04T05:10:46.002Z,0.00
2023-01-04T05:11:45.816Z,0.00
2023-01-04T05:12:45.802Z,0.00
2023-01-04T05:13:45.792Z,0.00
2023-01-04T05:14:45.780Z,0.00
2023-01-04T05:15:45.932Z,0.00
2023-01-04T05:16:45.778Z,0.00
2023-01-04T05:17:45.932Z,0.00
2023-01-04T05:18:45.730Z,0.00
2023-01-04T05:19:45.716Z,0.00
2023-01-04T05:20:45.710Z,0.00
2023-01-04T05:21:45.692Z,0.00
2023-01-04T05:22:45.868Z,0.00
2023-01-04T05:23:45.651Z,0.00
2023-01-04T05:24:45.651Z,0.00
2023-01-04T05:25:45.631Z,0.00
2023-01-04T05:26:45.628Z,0.00
2023-01-04T05:27:45.778Z,0.00
2023-01-04T05:28:51.524Z,0.00
2023-01-04T05:29:46.748Z,0.00
2023-01-04T05:30:45.575Z,0.00
2023-01-04T05:31:45.600Z,0.00
2023-01-04T05:32:45.549Z,0.00
2023-01-04T05:33:45.698Z,0.00
2023-01-04T05:34:45.538Z,0.00
2023-01-04T05:35:45.707Z,0.00
2023-01-04T05:36:45.487Z,0.00
2023-01-04T05:37:45.507Z,0.00
2023-01-04T05:38:45.459Z,0.00
2023-01-04T05:39:45.458Z,0.00
2023-01-04T05:40:45.619Z,0.00
2023-01-04T05:41:45.433Z,0.00
2023-01-04T05:42:45.434Z,0.00
2023-01-04T05:43:45.566Z,0.00
2023-01-04T05:44:45.392Z,0.00
2023-01-04T05:45:45.405Z,0.00
2023-01-04T05:46:45.535Z,0.00
2023-01-04T05:47:45.345Z,0.00
2023-01-04T05:48:45.335Z,0.00
2023-01-04T05:49:45.314Z,0.00
2023-01-04T05:50:45.323Z,0.00
2023-01-04T05:51:45.310Z,0.00
2023-01-04T05:52:45.294Z,0.00
2023-01-04T05:53:45.263Z,0.00
2023-01-04T05:54:45.273Z,0.00
2023-01-04T05:55:45.244Z,0.00
2023-01-04T05:56:45.416Z,0.00
2023-01-04T05:57:45.235Z,0.00
2023-01-04T05:58:45.206Z,0.00
2023-01-04T05:59:45.201Z,0.00
2023-01-04T06:00:45.173Z,0.00
2023-01-04T06:01:45.295Z,0.00
2023-01-04T06:02:45.274Z,0.00
2023-01-04T06:03:45.389Z,0.00
2023-01-04T06:04:45.135Z,0.00
2023-01-04T06:05:45.123Z,0.00
2023-01-04T06:06:45.107Z,0.00
2023-01-04T06:07:45.108Z,0.00
2023-01-04T06:08:45.082Z,0.00
2023-01-04T06:09:45.075Z,0.00
2023-01-04T06:10:45.044Z,0.00
2023-01-04T06:11:45.029Z,0.00
2023-01-04T06:12:45.029Z,0.00
2023-01-04T06:13:45.004Z,0.00
2023-01-04T06:14:45.002Z,0.00
2023-01-04T06:15:44.990Z,0.00
2023-01-04T06:16:44.990Z,0.00
2023-01-04T06:17:44.970Z,0.00
2023-01-04T06:18:44.929Z,0.00
2023-01-04T06:19:44.947Z,0.00
2023-01-04T06:20:44.914Z,0.00
2023-01-04T06:21:44.897Z,0.00
2023-01-04T06:22:44.897Z,0.00
2023-01-04T06:23:44.883Z,0.00
2023-01-04T06:24:44.860Z,0.00
2023-01-04T06:25:44.845Z,0.00
2023-01-04T06:26:45.019Z,0.00
2023-01-04T06:27:44.833Z,0.00
2023-01-04T06:28:44.797Z,0.00
2023-01-04T06:29:44.800Z,0.00
2023-01-04T06:30:44.887Z,0.00
2023-01-04T06:31:44.767Z,0.00
2023-01-04T06:32:44.769Z,0.00
2023-01-04T06:33:44.746Z,0.00
2023-01-04T06:34:44.738Z,0.00
2023-01-04T06:35:44.718Z,0.00
2023-01-04T06:36:44.715Z,0.00
2023-01-04T06:37:44.715Z,0.00
2023-01-04T06:38:44.677Z,0.00
2023-01-04T06:39:44.685Z,0.00
2023-01-04T06:40:44.651Z,0.00
2023-01-04T06:41:44.655Z,0.00
2023-01-04T06:42:44.792Z,0.00
2023-01-04T06:43:44.615Z,0.00
2023-01-04T06:44:44.771Z,0.00
2023-01-04T06:45:44.638Z,0.00
2023-01-04T06:46:44.588Z,0.00
2023-01-04T06:47:44.564Z,0.00
2023-01-04T06:48:44.745Z,0.00
2023-01-04T06:49:44.532Z,0.00
2023-01-04T06:50:44.535Z,0.00
2023-01-04T06:51:44.507Z,0.00
2023-01-04T06:52:44.684Z,0.00
2023-01-04T06:53:44.512Z,0.00
2023-01-04T06:54:44.628Z,0.00
2023-01-04T06:55:44.477Z,0.00
2023-01-04T06:56:44.445Z,0.00
2023-01-04T06:57:44.433Z,0.00
2023-01-04T06:58:44.430Z,0.00
2023-01-04T06:59:44.585Z,0.00
2023-01-04T07:00:44.402Z,0.00
2023-01-04T07:01:44.469Z,0.00
2023-01-04T07:03:14.041Z,0.00
2023-01-04T07:03:45.520Z,0.00
2023-01-04T07:04:44.468Z,0.00
2023-01-04T07:05:44.366Z,0.00
2023-01-04T07:06:44.313Z,0.00
2023-01-04T07:07:44.295Z,0.00
2023-01-04T07:08:44.466Z,0.00
2023-01-04T07:09:44.282Z,0.00
2023-01-04T07:10:44.304Z,0.00
2023-01-04T07:11:44.283Z,0.00
2023-01-04T07:12:44.225Z,0.00
2023-01-04T07:13:44.440Z,0.00
2023-01-04T07:14:44.192Z,0.00
2023-01-04T07:15:44.268Z,0.00
2023-01-04T07:16:44.251Z,0.00
2023-01-04T07:17:44.157Z,0.00
2023-01-04T07:18:44.195Z,0.00
2023-01-04T07:19:44.168Z,0.00
2023-01-04T07:20:44.130Z,0.00
2023-01-04T07:21:44.120Z,0.00
2023-01-04T07:22:44.096Z,0.00
2023-01-04T07:23:44.100Z,0.00
2023-01-04T07:24:44.075Z,4.00
2023-01-04T07:25:44.094Z,4.00
2023-01-04T07:26:44.036Z,0.00
2023-01-04T07:27:44.042Z,4.00
2023-01-04T07:28:44.017Z,0.00
2023-01-04T07:29:44.036Z,4.00
2023-01-04T07:30:44.001Z,4.00
2023-01-04T07:31:43.986Z,4.00
2023-01-04T07:32:43.971Z,4.00
2023-01-04T07:33:43.957Z,4.00
2023-01-04T07:34:43.954Z,4.00
2023-01-04T07:35:43.932Z,4.00
2023-01-04T07:36:43.903Z,4.00
2023-01-04T07:37:43.892Z,4.00
2023-01-04T07:38:43.881Z,4.00
2023-01-04T07:39:43.912Z,4.00
2023-01-04T07:40:55.818Z,4.00
2023-01-04T07:41:44.856Z,4.00
2023-01-04T07:42:43.832Z,4.00
2023-01-04T07:43:44.014Z,4.00
2023-01-04T07:44:43.813Z,4.00
2023-01-04T07:45:43.799Z,4.00
2023-01-04T07:46:43.866Z,0.00
2023-01-04T07:47:43.768Z,0.00
2023-01-04T07:48:44.188Z,0.00
2023-01-04T07:49:43.793Z,0.00
2023-01-04T07:50:43.727Z,4.00
2023-01-04T07:51:43.714Z,4.00
2023-01-04T07:52:43.701Z,4.00
2023-01-04T07:53:43.688Z,8.00
2023-01-04T07:54:43.701Z,8.00
2023-01-04T07:55:43.677Z,8.00
2023-01-04T07:56:43.647Z,4.00
2023-01-04T07:57:43.656Z,4.00
2023-01-04T07:58:43.620Z,4.00
2023-01-04T07:59:43.788Z,4.00
2023-01-04T08:00:43.767Z,8.00
2023-01-04T08:01:43.688Z,8.00
2023-01-04T08:02:43.819Z,8.00
2023-01-04T08:03:43.565Z,12.00
2023-01-04T08:04:43.595Z,8.00
2023-01-04T08:05:43.552Z,8.00
2023-01-04T08:06:43.536Z,8.00
2023-01-04T08:07:43.511Z,8.00
2023-01-04T08:08:43.488Z,8.00
2023-01-04T08:09:43.479Z,8.00
2023-01-04T08:10:43.460Z,8.00
2023-01-04T08:11:43.476Z,8.00
2023-01-04T08:12:43.444Z,8.00
2023-01-04T08:13:43.418Z,8.00
2023-01-04T08:14:43.409Z,8.00
2023-01-04T08:15:43.439Z,8.00
2023-01-04T08:16:43.574Z,12.00
2023-01-04T08:17:43.401Z,8.00
2023-01-04T08:18:43.541Z,12.00
2023-01-04T08:19:43.358Z,12.00
2023-01-04T08:20:43.348Z,16.00
2023-01-04T08:21:43.325Z,16.00
2023-01-04T08:22:43.295Z,16.00
2023-01-04T08:23:43.321Z,16.00
2023-01-04T08:24:43.314Z,20.00
2023-01-04T08:25:43.262Z,20.00
2023-01-04T08:26:43.257Z,20.00
2023-01-04T08:27:43.240Z,16.00
2023-01-04T08:28:43.282Z,16.00
2023-01-04T08:29:43.283Z,16.00
2023-01-04T08:30:43.202Z,20.00
2023-01-04T08:31:43.309Z,16.00
2023-01-04T08:32:43.176Z,16.00
2023-01-04T08:33:43.166Z,12.00
2023-01-04T08:34:43.180Z,16.00
2023-01-04T08:35:43.140Z,16.00
2023-01-04T08:36:43.139Z,16.00
2023-01-04T08:37:43.135Z,16.00
2023-01-04T08:39:00.396Z,20.00
2023-01-04T08:39:48.713Z,24.00
2023-01-04T08:40:58.757Z,24.00
2023-01-04T08:42:06.793Z,28.00
2023-01-04T08:42:44.050Z,28.00
2023-01-04T08:43:43.042Z,32.00
2023-01-04T08:44:43.022Z,36.00
2023-01-04T08:45:43.001Z,44.00
2023-01-04T08:46:43.016Z,40.00
2023-01-04T08:47:43.177Z,36.00
2023-01-04T08:48:42.998Z,28.00
2023-01-04T08:49:42.991Z,24.00
2023-01-04T08:50:43.109Z,24.00
2023-01-04T08:51:42.955Z,28.00
2023-01-04T08:52:42.918Z,32.00
2023-01-04T08:53:42.904Z,32.00
2023-01-04T08:54:42.903Z,36.00
2023-01-04T08:55:43.079Z,36.00
2023-01-04T08:56:42.866Z,36.00
2023-01-04T08:57:42.836Z,40.00
2023-01-04T08:58:42.836Z,44.00
2023-01-04T08:59:42.981Z,40.00
2023-01-04T09:00:42.805Z,40.00
2023-01-04T09:01:42.884Z,36.00
2023-01-04T09:02:42.818Z,36.00
2023-01-04T09:03:42.935Z,40.00
2023-01-04T09:04:42.791Z,44.00
2023-01-04T09:05:42.907Z,52.00
2023-01-04T09:06:42.763Z,56.00
2023-01-04T09:07:42.714Z,52.00
2023-01-04T09:08:42.741Z,52.00
2023-01-04T09:09:42.719Z,64.00
2023-01-04T09:10:42.906Z,68.00
2023-01-04T09:11:42.654Z,76.00
2023-01-04T09:12:42.632Z,64.00
2023-01-04T09:13:42.676Z,68.00
2023-01-04T09:14:42.618Z,60.00
2023-01-04T09:15:42.691Z,52.00
2023-01-04T09:16:42.645Z,52.00
2023-01-04T09:18:12.080Z,44.00
2023-01-04T09:18:43.562Z,40.00
2023-01-04T09:19:42.556Z,40.00
2023-01-04T09:20:42.556Z,40.00
2023-01-04T09:21:42.548Z,44.00
2023-01-04T09:22:42.551Z,40.00
2023-01-04T09:23:42.507Z,44.00
2023-01-04T09:24:42.497Z,44.00
2023-01-04T09:25:42.666Z,44.00
2023-01-04T09:26:42.465Z,44.00
2023-01-04T09:27:42.451Z,56.00
2023-01-04T09:28:42.430Z,52.00
2023-01-04T09:29:42.420Z,52.00
2023-01-04T09:30:42.571Z,52.00
2023-01-04T09:31:42.448Z,60.00
2023-01-04T09:32:42.390Z,60.00
2023-01-04T09:34:12.895Z,60.00
2023-01-04T09:34:43.362Z,52.00
2023-01-04T09:35:42.365Z,52.00
2023-01-04T09:36:42.368Z,40.00
2023-01-04T09:37:42.348Z,32.00
2023-01-04T09:38:42.298Z,36.00
2023-01-04T09:39:42.309Z,36.00
2023-01-04T09:40:42.268Z,32.00
2023-01-04T09:41:42.267Z,28.00
2023-01-04T09:42:42.257Z,24.00
2023-01-04T09:43:42.287Z,24.00
2023-01-04T09:45:43.210Z,48.00
2023-01-04T09:46:42.265Z,44.00
2023-01-04T09:47:42.372Z,36.00
2023-01-04T09:48:42.167Z,36.00
2023-01-04T09:49:42.157Z,32.00
2023-01-04T09:50:42.151Z,32.00
2023-01-04T09:51:42.168Z,32.00
2023-01-04T09:52:42.145Z,36.00
2023-01-04T09:53:42.104Z,36.00
2023-01-04T09:54:42.096Z,36.00
2023-01-04T09:55:42.104Z,40.00
2023-01-04T09:56:42.104Z,40.00
2023-01-04T09:57:42.055Z,40.00
2023-01-04T09:58:42.067Z,52.00
2023-01-04T09:59:42.119Z,56.00
2023-01-04T10:00:44.130Z,60.00
2023-01-04T10:01:42.187Z,56.00
2023-01-04T10:02:42.207Z,44.00
2023-01-04T10:03:42.106Z,52.00
2023-01-04T10:04:41.949Z,48.00
2023-01-04T10:05:41.954Z,44.00
2023-01-04T10:06:41.937Z,44.00
2023-01-04T10:07:41.926Z,44.00
2023-01-04T10:08:41.938Z,40.00
2023-01-04T10:09:41.902Z,36.00
2023-01-04T10:10:41.874Z,36.00
2023-01-04T10:11:41.891Z,36.00
2023-01-04T10:12:41.862Z,28.00
2023-01-04T10:13:42.033Z,32.00
2023-01-04T10:14:41.850Z,32.00
2023-01-04T10:15:41.821Z,36.00
2023-01-04T10:17:11.986Z,44.00
2023-01-04T10:19:23.901Z,60.00
2023-01-04T10:19:50.421Z,60.00
2023-01-04T10:21:20.756Z,52.00
2023-01-04T10:21:42.784Z,44.00
2023-01-04T10:22:41.727Z,44.00
2023-01-04T10:23:41.733Z,40.00
2023-01-04T10:24:41.698Z,44.00
2023-01-04T10:25:41.692Z,48.00
2023-01-04T10:26:41.709Z,56.00
2023-01-04T10:27:43.002Z,68.00
2023-01-04T10:28:41.689Z,68.00
2023-01-04T10:29:41.628Z,76.00
2023-01-04T10:30:41.618Z,76.00
2023-01-04T10:31:42.006Z,80.00
2023-01-04T10:32:41.589Z,96.00
2023-01-04T10:33:41.578Z,104.00
2023-01-04T10:34:41.567Z,100.00
2023-01-04T10:35:41.577Z,104.00
2023-01-04T10:36:41.578Z,108.00
2023-01-04T10:37:41.527Z,116.00
2023-01-04T10:38:41.526Z,124.00
2023-01-04T10:39:41.508Z,116.00
2023-01-04T10:40:41.475Z,100.00
2023-01-04T10:41:41.675Z,80.00
2023-01-04T10:42:41.466Z,84.00
2023-01-04T10:44:11.427Z,84.00
2023-01-04T10:44:42.430Z,80.00
2023-01-04T10:45:41.427Z,80.00
2023-01-04T10:46:41.461Z,92.00
2023-01-04T10:47:41.426Z,92.00
2023-01-04T10:48:41.375Z,92.00
2023-01-04T10:49:41.367Z,76.00
2023-01-04T10:50:41.357Z,68.00
2023-01-04T10:51:41.355Z,60.00
2023-01-04T10:52:41.519Z,68.00
2023-01-04T10:53:41.361Z,68.00
2023-01-04T10:54:41.294Z,68.00
2023-01-04T10:55:41.291Z,72.00
2023-01-04T10:56:42.272Z,84.00
2023-01-04T10:57:41.282Z,76.00
2023-01-04T10:58:41.245Z,68.00
2023-01-04T10:59:41.245Z,72.00
2023-01-04T11:00:41.254Z,72.00
2023-01-04T11:01:41.358Z,68.00
2023-01-04T11:02:41.372Z,64.00
2023-01-04T11:03:41.238Z,76.00
2023-01-04T11:04:41.231Z,92.00
2023-01-04T11:05:41.254Z,104.00
2023-01-04T11:06:41.211Z,104.00
2023-01-04T11:07:41.215Z,100.00
2023-01-04T11:08:41.229Z,100.00
2023-01-04T11:09:41.114Z,104.00
2023-01-04T11:10:41.090Z,116.00
2023-01-04T11:11:41.080Z,120.00
2023-01-04T11:12:41.077Z,120.00
2023-01-04T11:13:41.080Z,120.00
2023-01-04T11:14:41.032Z,112.00
2023-01-04T11:15:41.029Z,104.00
2023-01-04T11:16:41.060Z,108.00
2023-01-04T11:17:41.051Z,100.00
2023-01-04T11:18:41.029Z,92.00
2023-01-04T11:19:40.980Z,88.00
2023-01-04T11:20:40.959Z,84.00
2023-01-04T11:21:40.947Z,84.00
2023-01-04T11:22:40.995Z,76.00
2023-01-04T11:23:40.950Z,84.00
2023-01-04T11:24:54.019Z,92.00
2023-01-04T11:25:41.908Z,80.00
2023-01-04T11:26:40.897Z,88.00
2023-01-04T11:27:40.909Z,96.00
2023-01-04T11:28:40.847Z,108.00
2023-01-04T11:29:40.879Z,100.00
2023-01-04T11:30:41.025Z,88.00
2023-01-04T11:31:40.851Z,92.00
2023-01-04T11:32:40.803Z,104.00
2023-01-04T11:33:40.807Z,124.00
2023-01-04T11:34:40.777Z,132.00
2023-01-04T11:35:42.851Z,112.00
2023-01-04T11:36:40.745Z,108.00
2023-01-04T11:37:40.735Z,100.00
2023-01-04T11:38:40.833Z,100.00
2023-01-04T11:39:40.725Z,92.00
2023-01-04T11:40:40.695Z,104.00
2023-01-04T11:41:40.866Z,104.00
2023-01-04T11:42:40.673Z,104.00
2023-01-04T11:43:40.656Z,100.00
2023-01-04T11:44:40.675Z,100.00
2023-01-04T11:45:40.700Z,108.00
2023-01-04T11:46:40.788Z,100.00
2023-01-04T11:47:40.617Z,92.00
2023-01-04T11:48:40.599Z,92.00
2023-01-04T11:49:40.581Z,96.00
2023-01-04T11:50:40.563Z,100.00
2023-01-04T11:51:40.568Z,100.00
2023-01-04T11:52:40.535Z,84.00
2023-01-04T11:53:40.553Z,84.00
2023-01-04T11:54:40.528Z,92.00
2023-01-04T11:55:40.521Z,68.00
2023-01-04T11:56:40.692Z,76.00
2023-01-04T11:57:40.463Z,60.00
2023-01-04T11:58:40.459Z,72.00
2023-01-04T11:59:40.490Z,68.00
2023-01-04T12:00:40.546Z,76.00
2023-01-04T12:01:41.373Z,76.00
2023-01-04T12:03:00.885Z,80.00
2023-01-04T12:03:41.410Z,80.00
2023-01-04T12:04:40.382Z,80.00
2023-01-04T12:05:40.373Z,72.00
2023-01-04T12:06:40.361Z,72.00
2023-01-04T12:07:40.548Z,80.00
2023-01-04T12:08:40.331Z,88.00
2023-01-04T12:09:40.481Z,100.00
2023-01-04T12:10:40.304Z,100.00
2023-01-04T12:11:40.286Z,100.00
2023-01-04T12:12:40.283Z,112.00
2023-01-04T12:13:40.269Z,104.00
2023-01-04T12:14:40.281Z,100.00
2023-01-04T12:15:40.252Z,92.00
2023-01-04T12:16:40.238Z,100.00
2023-01-04T12:17:43.290Z,100.00
2023-01-04T12:18:40.208Z,92.00
2023-01-04T12:19:40.410Z,108.00
2023-01-04T12:20:40.172Z,112.00
2023-01-04T12:21:40.156Z,104.00
2023-01-04T12:22:40.165Z,108.00
2023-01-04T12:23:40.130Z,116.00
2023-01-04T12:24:40.136Z,132.00
2023-01-04T12:25:40.108Z,148.00
2023-01-04T12:26:40.268Z,144.00
2023-01-04T12:27:40.077Z,128.00
2023-01-04T12:28:40.069Z,136.00
2023-01-04T12:29:40.045Z,112.00
2023-01-04T12:30:40.034Z,120.00
2023-01-04T12:31:40.198Z,140.00
2023-01-04T12:32:40.013Z,144.00
2023-01-04T12:33:40.010Z,152.00
2023-01-04T12:34:39.987Z,140.00
2023-01-04T12:35:39.967Z,112.00
2023-01-04T12:36:40.148Z,104.00
2023-01-04T12:37:39.950Z,84.00
2023-01-04T12:38:39.946Z,100.00
2023-01-04T12:39:39.924Z,96.00
2023-01-04T12:40:39.987Z,80.00
2023-01-04T12:41:39.914Z,76.00
2023-01-04T12:42:39.895Z,80.00
2023-01-04T12:43:46.591Z,64.00
2023-01-04T12:44:41.273Z,76.00
2023-01-04T12:45:39.969Z,76.00
2023-01-04T12:46:39.926Z,96.00
2023-01-04T12:47:39.820Z,84.00
2023-01-04T12:48:39.820Z,92.00
2023-01-04T12:49:39.783Z,92.00
2023-01-04T12:50:43.725Z,116.00
2023-01-04T12:51:52.106Z,100.00
2023-01-04T12:52:55.137Z,92.00
2023-01-04T12:53:40.751Z,80.00
2023-01-04T12:54:39.904Z,80.00
2023-01-04T12:55:43.606Z,80.00
2023-01-04T12:56:39.702Z,72.00
2023-01-04T12:57:39.691Z,80.00
2023-01-04T12:59:40.824Z,96.00
2023-01-04T13:00:39.644Z,104.00
2023-01-04T13:01:39.712Z,112.00
2023-01-04T13:02:39.923Z,120.00
2023-01-04T13:03:39.689Z,108.00
2023-01-04T13:04:39.606Z,84.00
2023-01-04T13:05:57.005Z,88.00
2023-01-04T13:06:40.565Z,96.00
2023-01-04T13:07:39.550Z,92.00
2023-01-04T13:08:39.578Z,88.00
2023-01-04T13:09:43.359Z,68.00